Las Vegas Municipal Airport Las Vegas US
ICAO: KLVS
IATA: LVS
Category: Medium
Scheduled Services: No

Elevation: 6877 ft
TransAlt. 18000 ft.

Airport Communications:
ASOS:118.525
ALBUQUERQUE CNTR:132.8
ALBUQUERQUE RDO:122.6
CTAF/UNICOM:122.8

KLVS Zoom In..

If Map Doesn't Load, Click Here

Runways:

(A) RW 02 length 5006 ft width 75 ft
---- / hdg 22

(B) RW 14 length 8199 ft width 75 ft
---- / hdg 139

(C) RW 20 length 5006 ft width 75 ft
---- / hdg 202

(D) RW 32 length 8199 ft width 75 ft
---- / hdg 319

Location; KLVS
Day. 23 / Time. 07.53 Zulu
* Altimeter: 30.28
* Temperature: 08° c. 46.4°f.
* Wind from: 190° Speed 09 kn.
Dewpoint: 03° c.
Visibility: 10 Statute Miles.
Clouds: Clear (automated report).

KLVS 230753Z AUTO 19009KT 10SM CLR 08/03 A3028 RMK AO2 SLP162 T00830028


Wind From 190°
Speed 09 kn.

 
 
jpsmedia.com for Web Design worldairports.se 2018   terms of use